Decoded Metar for VTBS (BANGKOK in THAILAND) (IATA:BKK) | Meteo·Mobile Aviation Weather
aviador You're here:

VTBS Decoded Metar

BANGKOK in THAILAND
Report Time2019-07-22 16:00:00
UTC Time2019-07-22 16:27:49
Flight Rules vfr VFR
Wind200° at 08 kt
W.Decomp.*RWY 19: 7.9 kt HW 1.4 kt RCW
Visibility9999 m
Phenomena:N/A
Clouds:Few 025 Hf
Expected CloudBase > 1,200 ft AGL from Temp-Dew spread
CeilingNone
Temp29°C (ISA +14)
Dew Point26°C (84% RH)
Heat Index35.6°C
QNH1008 hPa
Density Alt2,228 ft
Elevation10 ft
Report Wrong Elevation
Raw Report
VTBS 221600Z 20008KT 9999 FEW025 29/26 Q1008 NOSIG=

Extra information for VTBS:More info

Metar Taf Metar & Taf Last 4 Metars F.Rules Stats Wind Profile Meteogram Temp Stats Airport Information Weather charts Add Link Nearby VenuesMetar ALERT Operation Metar Decoded Social comments